Clovis ASC

2021-06-24 19:30:00

  • imperial
Date Time Air Temperature Relative Humidity Dewpoint Windchill Heat Index Wind Speed Wind Dir. Rain Solar Radiation Soil Temperature Soil Temperature
2m 2m 3m 3m 5cm 10cm
US/Mountain F % F F F MPH deg in MJ/m^2 F F
max avg avg
2021-06-23 19:35:00 84.4 32.3 51.6 84.4 84.4 12.8 18.0 14.5 189.9 202.2 0.00 0.0112723 94.4 92.6
2021-06-23 19:40:00 85.5 29.4 50.0 85.5 85.5 10.8 16.7 14.2 192.4 196.3 0.00 0.0108491 94.0 92.5
2021-06-23 19:45:00 85.6 29.2 49.9 85.6 85.6 15.3 15.8 11.4 188.3 184.1 0.00 0.0110008 93.7 92.3
2021-06-23 19:50:00 85.6 29.6 50.3 85.6 85.6 11.9 18.5 14.4 173.8 188.4 0.00 0.0078565 93.5 92.2
2021-06-23 19:55:00 85.5 28.1 48.8 85.5 85.5 14.2 19.4 12.8 186.5 173.3 0.00 0.0029806 93.1 92.1
2021-06-23 20:00:00 85.4 28.9 49.5 85.4 85.4 10.3 15.3 12.9 171.5 172.7 0.00 0.0011404 92.9 91.9
2021-06-23 20:05:00 85.3 26.0 46.6 85.3 85.3 15.8 16.0 11.7 171.7 182.4 0.00 0.0002645 92.6 91.8
2021-06-23 20:10:00 85.1 28.6 48.9 85.1 85.1 10.3 14.9 11.6 196.2 183.9 0.00 0.0000586 92.3 91.7
2021-06-23 20:15:00 84.7 29.4 49.3 84.7 84.7 9.7 13.9 11.1 181.7 187.5 0.00 0.0000000 92.1 91.5
2021-06-23 20:20:00 83.8 30.0 49.0 83.8 83.8 8.5 11.2 9.3 173.7 181.2 0.00 0.0000000 91.8 91.3
2021-06-23 20:25:00 83.2 30.6 49.1 83.2 83.2 10.1 10.8 9.2 187.8 177.1 0.00 0.0000000 91.5 91.2
2021-06-23 20:30:00 82.8 30.9 49.0 82.8 82.8 8.7 11.0 9.4 184.8 180.9 0.00 0.0000000 91.3 91.1
2021-06-23 20:35:00 82.3 30.5 48.2 82.3 82.3 9.2 9.2 8.0 182.8 181.0 0.00 0.0000000 91.0 91.0
2021-06-23 20:40:00 82.2 30.2 47.8 82.2 82.2 7.8 8.3 7.3 167.3 178.3 0.00 0.0000000 90.7 90.8
2021-06-23 20:45:00 81.8 29.9 47.2 81.8 81.8 7.8 8.3 7.2 164.9 181.0 0.00 0.0000000 90.4 90.7
2021-06-23 20:50:00 82.0 28.6 46.2 82.0 82.0 8.3 9.9 7.9 181.5 180.3 0.00 0.0000000 90.1 90.5
2021-06-23 20:55:00 82.2 27.7 45.5 82.2 82.2 8.7 9.6 8.1 172.4 186.4 0.00 0.0000000 89.9 90.4
2021-06-23 21:00:00 82.7 26.8 45.1 82.7 82.7 8.7 12.8 9.9 177.2 187.0 0.00 0.0000000 89.6 90.2
2021-06-23 21:05:00 82.7 26.8 45.1 82.7 82.7 8.3 10.3 9.0 188.5 187.0 0.00 0.0000000 89.3 90.1
2021-06-23 21:10:00 82.7 26.8 45.2 82.7 82.7 8.8 12.6 9.3 186.7 187.8 0.00 0.0000000 89.1 89.9
2021-06-23 21:15:00 82.7 28.3 46.6 82.7 82.7 8.5 10.5 9.1 180.3 187.6 0.00 0.0000000 88.9 89.8
2021-06-23 21:20:00 82.5 30.4 48.3 82.5 82.5 9.7 11.5 9.3 187.0 184.9 0.00 0.0000000 88.7 89.6
2021-06-23 21:25:00 82.4 32.7 50.1 82.4 82.4 9.4 11.0 8.7 180.2 184.5 0.00 0.0000000 88.4 89.5
2021-06-23 21:30:00 82.8 32.6 50.4 82.8 82.8 11.5 11.7 9.6 174.5 181.5 0.00 0.0000000 88.3 89.4
2021-06-23 21:35:00 83.0 32.6 50.5 83.0 83.0 10.6 11.7 9.5 198.3 189.4 0.00 0.0000000 88.1 89.2
2021-06-23 21:40:00 83.3 32.6 50.9 83.3 83.3 10.6 13.0 10.8 190.6 186.9 0.00 0.0000000 87.9 89.1
2021-06-23 21:45:00 83.6 31.8 50.5 83.6 83.6 10.6 14.4 11.5 176.8 185.7 0.00 0.0000000 87.8 89.0
2021-06-23 21:50:00 83.4 31.6 50.1 83.4 83.4 10.3 13.7 10.2 187.5 188.4 0.00 0.0000000 87.7 88.8
2021-06-23 21:55:00 83.8 31.2 50.1 83.8 83.8 11.9 14.0 11.6 193.2 193.9 0.00 0.0000000 87.5 88.7
2021-06-23 22:00:00 83.4 32.0 50.4 83.4 83.4 9.0 14.2 10.9 207.2 202.6 0.00 0.0000000 87.4 88.6
2021-06-23 22:05:00 82.9 32.0 50.0 82.9 82.9 11.5 13.5 10.6 201.2 200.2 0.00 0.0000000 87.3 88.5
2021-06-23 22:10:00 82.7 32.0 49.8 82.7 82.7 8.0 11.5 9.5 188.9 196.2 0.00 0.0000000 87.2 88.4
2021-06-23 22:15:00 82.6 31.6 49.4 82.6 82.6 10.3 11.3 9.8 194.7 193.9 0.00 0.0000000 87.1 88.3
2021-06-23 22:20:00 82.3 32.0 49.6 82.3 82.3 9.6 11.9 9.4 199.5 192.4 0.00 0.0000000 87.0 88.2
2021-06-23 22:25:00 82.1 31.9 49.2 82.1 82.1 11.2 12.2 9.7 199.8 188.3 0.00 0.0000000 86.9 88.1
2021-06-23 22:30:00 82.4 31.4 49.1 82.4 82.4 13.0 15.3 10.3 166.4 186.9 0.00 0.0000000 86.8 88.0
2021-06-23 22:35:00 82.5 31.5 49.3 82.5 82.5 9.0 13.0 10.7 173.7 179.7 0.00 0.0000000 86.7 87.9
2021-06-23 22:40:00 82.4 31.8 49.4 82.4 82.4 8.5 12.1 9.8 185.8 183.1 0.00 0.0000000 86.6 87.8
2021-06-23 22:45:00 82.5 31.5 49.2 82.5 82.5 8.0 13.3 9.7 203.2 189.8 0.00 0.0000000 86.5 87.7
2021-06-23 22:50:00 81.8 32.7 49.7 81.8 81.8 9.0 9.9 8.0 171.5 186.4 0.00 0.0000000 86.4 87.6
2021-06-23 22:55:00 81.7 33.1 49.9 81.7 81.7 7.6 11.3 8.3 175.4 185.8 0.00 0.0000000 86.3 87.6
2021-06-23 23:00:00 81.7 32.4 49.3 81.7 81.7 9.9 10.1 8.4 202.9 190.0 0.00 0.0000000 86.2 87.5
2021-06-23 23:05:00 82.0 32.7 49.8 82.0 82.0 9.2 10.6 8.8 206.8 197.2 0.00 0.0000000 86.1 87.4
2021-06-23 23:10:00 81.6 33.7 50.3 81.6 81.6 7.8 9.4 7.9 194.8 198.4 0.00 0.0000000 86.0 87.3
2021-06-23 23:15:00 81.6 34.5 50.9 81.6 81.6 13.7 13.7 9.4 201.4 194.1 0.00 0.0000000 85.9 87.2
2021-06-23 23:20:00 82.2 35.8 52.4 82.2 82.2 12.4 15.1 11.7 193.9 191.0 0.00 0.0000000 85.8 87.1
2021-06-23 23:25:00 82.7 35.1 52.3 82.7 82.7 11.3 14.4 12.4 201.3 196.5 0.00 0.0000000 85.6 87.0
2021-06-23 23:30:00 82.7 35.9 52.9 82.7 82.7 11.9 13.9 11.3 202.5 196.1 0.00 0.0000000 85.6 87.0
2021-06-23 23:35:00 82.5 36.3 53.1 82.5 82.5 11.0 14.0 11.6 194.8 196.1 0.00 0.0000000 85.5 86.9
2021-06-23 23:40:00 81.8 37.1 53.1 81.8 81.8 11.5 14.4 10.6 220.9 204.8 0.00 0.0000000 85.4 86.8
2021-06-23 23:45:00 81.4 38.0 53.3 81.4 81.4 10.5 11.5 10.3 204.7 211.2 0.00 0.0000000 85.3 86.7
2021-06-23 23:50:00 81.2 38.4 53.4 81.2 81.2 10.1 13.9 11.3 205.5 211.2 0.00 0.0000000 85.2 86.6
2021-06-23 23:55:00 80.4 40.9 54.5 80.4 80.3 9.6 12.8 10.1 210.3 216.7 0.00 0.0000000 85.1 86.6
2021-06-24 00:00:00 79.7 42.1 54.6 79.7 79.7 11.3 12.8 10.6 205.0 216.1 0.00 0.0000000 85.0 86.5
2021-06-24 00:05:00 79.3 42.9 54.8 79.3 79.3 10.8 12.4 10.0 201.4 210.0 0.00 0.0000000 84.9 86.4
2021-06-24 00:10:00 79.4 42.8 54.8 79.4 79.4 9.6 13.9 11.4 203.6 211.0 0.00 0.0000000 84.8 86.3
2021-06-24 00:15:00 79.3 43.6 55.2 79.3 79.3 9.9 12.1 10.2 218.3 212.9 0.00 0.0000000 84.7 86.2
2021-06-24 00:20:00 79.3 44.3 55.7 79.3 79.3 11.5 13.5 10.7 209.8 213.9 0.00 0.0000000 84.6 86.2
2021-06-24 00:25:00 79.0 45.1 55.9 79.0 79.0 11.0 11.5 9.5 198.6 217.3 0.00 0.0000000 84.5 86.1
2021-06-24 00:30:00 79.3 44.8 56.0 79.3 79.3 9.6 11.5 9.5 213.5 214.6 0.00 0.0000000 84.4 86.0
2021-06-24 00:35:00 79.9 43.2 55.5 79.9 79.9 10.5 12.8 10.5 220.7 212.6 0.00 0.0000000 84.3 86.0
2021-06-24 00:40:00 80.5 42.4 55.6 80.5 80.5 12.8 14.0 11.1 208.9 208.4 0.00 0.0000000 84.2 85.9
2021-06-24 00:45:00 80.3 43.0 55.7 80.3 80.4 10.3 12.4 10.5 201.0 206.5 0.00 0.0000000 84.2 85.8
2021-06-24 00:50:00 79.9 43.6 55.8 79.9 79.9 11.3 11.9 9.5 209.4 207.0 0.00 0.0000000 84.1 85.7
2021-06-24 00:55:00 80.0 43.4 55.8 80.0 80.2 11.0 13.1 10.0 199.6 204.6 0.00 0.0000000 84.1 85.7
2021-06-24 01:00:00 80.2 43.3 55.9 80.2 80.3 9.6 12.4 10.0 205.3 207.3 0.00 0.0000000 84.0 85.6
2021-06-24 01:05:00 80.2 43.2 55.8 80.2 80.3 11.3 12.8 10.3 203.8 209.8 0.00 0.0000000 84.0 85.5
2021-06-24 01:10:00 80.3 43.6 56.1 80.3 80.4 8.7 13.1 10.7 211.1 211.8 0.00 0.0000000 83.9 85.5
2021-06-24 01:15:00 80.1 43.9 56.2 80.1 80.3 10.3 13.5 10.9 198.7 208.5 0.00 0.0000000 83.9 85.4
2021-06-24 01:20:00 80.0 44.0 56.1 80.0 80.3 12.1 13.3 11.3 202.7 203.6 0.00 0.0000000 83.8 85.4
2021-06-24 01:25:00 79.8 44.3 56.2 79.8 79.8 12.8 15.3 12.6 204.5 206.0 0.00 0.0000000 83.8 85.3
2021-06-24 01:30:00 79.8 44.6 56.3 79.8 79.8 13.5 16.2 14.0 201.3 203.8 0.00 0.0000000 83.7 85.2
2021-06-24 01:35:00 79.3 45.4 56.4 79.3 79.3 10.5 16.4 13.1 184.6 205.3 0.00 0.0000000 83.7 85.2
2021-06-24 01:40:00 79.0 45.9 56.4 79.0 79.0 10.1 16.5 13.3 223.6 204.1 0.00 0.0000000 83.6 85.1
2021-06-24 01:45:00 78.9 46.1 56.4 78.9 78.9 13.9 17.1 13.7 204.3 206.0 0.00 0.0000000 83.5 85.0
2021-06-24 01:50:00 78.5 46.7 56.5 78.5 78.5 13.9 14.4 12.6 182.4 202.0 0.00 0.0000000 83.5 85.0
2021-06-24 01:55:00 78.1 47.8 56.7 78.1 78.1 14.7 16.2 11.9 187.7 203.9 0.00 0.0000000 83.4 85.0
2021-06-24 02:00:00 77.8 48.6 56.9 77.8 77.8 12.1 16.4 13.4 207.6 205.1 0.00 0.0000000 83.4 84.9
2021-06-24 02:05:00 77.5 49.3 57.0 77.5 77.5 14.9 16.0 13.7 204.5 199.3 0.00 0.0000000 83.2 84.8
2021-06-24 02:10:00 77.3 49.8 57.1 77.3 77.3 13.1 16.9 13.6 198.3 200.9 0.00 0.0000000 83.2 84.8
2021-06-24 02:15:00 77.1 50.4 57.2 77.1 77.1 12.1 17.1 12.9 197.9 203.8 0.00 0.0000000 83.1 84.7
2021-06-24 02:20:00 76.8 51.1 57.4 76.8 76.8 9.9 14.7 11.6 202.3 204.8 0.00 0.0000000 83.0 84.7
2021-06-24 02:25:00 76.7 51.2 57.4 76.7 76.7 11.5 14.0 12.0 203.7 207.2 0.00 0.0000000 82.9 84.6
2021-06-24 02:30:00 76.6 51.4 57.4 76.6 76.6 10.8 16.7 12.6 212.6 207.4 0.00 0.0000000 82.8 84.6
2021-06-24 02:35:00 76.6 51.9 57.6 76.6 76.6 13.7 15.6 12.3 209.2 206.3 0.00 0.0000000 82.7 84.5
2021-06-24 02:40:00 76.4 52.6 57.7 76.4 76.4 9.7 14.6 11.1 210.1 205.2 0.00 0.0000000 82.6 84.4
2021-06-24 02:45:00 76.2 53.2 58.0 76.2 76.2 13.0 13.5 10.9 207.1 206.4 0.00 0.0000000 82.5 84.3
2021-06-24 02:50:00 76.6 53.1 58.2 76.6 76.6 13.1 16.2 13.0 206.6 207.0 0.00 0.0000000 82.4 84.3
2021-06-24 02:55:00 76.2 53.8 58.3 76.2 76.2 12.8 14.7 11.4 207.5 205.5 0.00 0.0000000 82.4 84.2
2021-06-24 03:00:00 76.0 54.9 58.6 76.0 76.0 10.6 12.8 10.0 204.9 204.4 0.00 0.0000000 82.3 84.2
2021-06-24 03:05:00 75.6 55.2 58.4 75.6 75.6 9.2 12.4 9.7 205.5 202.0 0.00 0.0000000 82.2 84.1
2021-06-24 03:10:00 75.3 55.8 58.4 75.3 75.3 10.5 13.0 9.6 192.9 203.7 0.00 0.0000000 82.1 84.0
2021-06-24 03:15:00 75.2 56.4 58.6 75.2 75.2 10.1 14.4 10.5 207.2 204.8 0.00 0.0000000 82.1 84.0
2021-06-24 03:20:00 74.9 57.1 58.7 74.9 74.9 14.2 14.7 10.0 185.8 205.1 0.00 0.0000000 82.0 83.9
2021-06-24 03:25:00 74.8 57.9 58.9 74.8 74.8 9.9 14.4 11.3 192.3 202.9 0.00 0.0000000 81.9 83.9
2021-06-24 03:30:00 74.5 58.8 59.1 74.5 74.5 11.5 13.3 10.9 186.6 196.3 0.00 0.0000000 81.8 83.8
2021-06-24 03:35:00 74.2 59.8 59.3 74.2 74.2 10.1 12.4 10.2 189.2 191.6 0.00 0.0000000 81.7 83.7
2021-06-24 03:40:00 74.2 59.6 59.2 74.2 74.2 9.6 13.1 10.4 201.4 194.2 0.00 0.0000000 81.6 83.6
2021-06-24 03:45:00 73.7 60.5 59.2 73.7 73.7 9.0 11.5 9.0 189.1 191.6 0.00 0.0000000 81.5 83.6
2021-06-24 03:50:00 73.5 61.0 59.3 73.5 73.5 8.3 10.6 8.5 189.3 196.8 0.00 0.0000000 81.4 83.5
2021-06-24 03:55:00 73.4 61.3 59.3 73.4 73.4 9.4 11.7 8.9 178.7 187.0 0.00 0.0000000 81.3 83.5
2021-06-24 04:00:00 73.2 62.4 59.6 73.2 73.2 8.0 11.2 8.5 190.5 185.8 0.00 0.0000000 81.2 83.4
2021-06-24 04:05:00 73.3 62.9 59.9 73.3 73.3 9.0 12.6 10.3 204.5 188.7 0.00 0.0000000 81.1 83.3
2021-06-24 04:10:00 73.1 63.6 60.0 73.1 73.1 7.8 11.9 9.4 200.3 194.2 0.00 0.0000000 81.1 83.3
2021-06-24 04:15:00 72.9 64.0 60.0 72.9 72.9 11.3 14.0 10.5 189.1 194.2 0.00 0.0000000 81.0 83.2
2021-06-24 04:20:00 72.8 65.0 60.3 72.8 72.8 9.4 13.1 10.4 201.7 196.9 0.00 0.0000000 80.9 83.1
2021-06-24 04:25:00 72.6 65.6 60.4 72.6 72.6 8.8 12.2 10.6 203.0 195.3 0.00 0.0000000 80.8 83.1
2021-06-24 04:30:00 72.4 66.4 60.5 72.4 72.4 10.5 14.4 10.6 210.6 197.9 0.00 0.0000000 80.8 83.0
2021-06-24 04:35:00 72.0 66.1 60.1 72.0 72.0 9.2 11.5 9.7 213.3 207.9 0.00 0.0000000 80.7 82.9
2021-06-24 04:40:00 71.6 66.5 59.8 71.6 71.6 6.9 10.5 8.3 232.7 220.0 0.00 0.0000000 80.6 82.9
2021-06-24 04:45:00 71.2 67.2 59.7 71.2 71.2 11.5 12.6 9.8 251.9 249.3 0.00 0.0000000 80.5 82.8
2021-06-24 04:50:00 71.1 68.6 60.3 71.1 71.1 9.0 13.5 9.7 204.7 221.7 0.00 0.0000000 80.4 82.8
2021-06-24 04:55:00 71.3 68.0 60.3 71.3 71.3 11.0 15.3 11.7 243.3 215.5 0.00 0.0000000 80.3 82.7
2021-06-24 05:00:00 71.2 69.3 60.6 71.2 71.2 10.5 14.2 11.8 204.1 210.7 0.00 0.0000000 80.2 82.6
2021-06-24 05:05:00 71.1 69.7 60.7 71.1 71.1 10.3 13.9 11.5 200.7 212.9 0.00 0.0000000 80.1 82.6
2021-06-24 05:10:00 71.0 69.4 60.5 71.0 71.0 11.0 13.9 11.3 199.7 203.0 0.00 0.0000000 80.0 82.5
2021-06-24 05:15:00 71.0 69.6 60.5 71.0 71.0 9.4 13.5 10.5 223.2 214.2 0.00 0.0000000 79.9 82.4
2021-06-24 05:20:00 70.8 70.6 60.8 70.8 70.8 9.2 10.5 8.7 208.5 209.1 0.00 0.0000000 79.8 82.4
2021-06-24 05:25:00 70.4 71.0 60.6 70.4 70.4 8.3 10.6 8.6 217.4 204.3 0.00 0.0000000 79.7 82.3
2021-06-24 05:30:00 70.1 72.2 60.7 70.1 70.1 7.2 9.9 7.8 206.0 204.4 0.00 0.0000000 79.7 82.2
2021-06-24 05:35:00 69.9 72.4 60.6 69.9 69.9 7.1 9.7 7.9 206.3 202.4 0.00 0.0000011 79.6 82.1
2021-06-24 05:40:00 69.6 73.2 60.6 69.6 69.6 7.2 8.3 7.0 206.2 200.9 0.00 0.0003530 79.5 82.1
2021-06-24 05:45:00 69.3 73.3 60.3 69.3 69.3 6.0 8.5 6.5 193.2 199.6 0.00 0.0008352 79.4 82.0
2021-06-24 05:50:00 69.3 73.8 60.5 69.3 69.3 5.3 8.0 6.4 184.9 200.9 0.00 0.0020808 79.3 82.0
2021-06-24 05:55:00 69.3 73.8 60.6 69.3 69.3 5.8 7.6 6.2 216.8 203.2 0.00 0.0037081 79.2 81.9
2021-06-24 06:00:00 69.0 74.4 60.5 69.0 69.0 5.3 6.5 5.2 196.1 195.9 0.00 0.0068579 79.1 81.8
2021-06-24 06:05:00 69.2 73.8 60.4 69.2 69.2 5.5 6.3 5.6 201.2 191.1 0.00 0.0104571 79.0 81.8
2021-06-24 06:10:00 69.2 73.3 60.2 69.2 69.2 7.4 8.1 6.4 194.6 195.5 0.00 0.0141994 79.0 81.7
2021-06-24 06:15:00 69.7 71.7 60.2 69.7 69.7 7.4 9.7 7.3 200.6 195.7 0.00 0.0186333 78.9 81.6
2021-06-24 06:20:00 70.3 71.4 60.6 70.3 70.3 7.4 10.5 8.1 184.4 201.0 0.00 0.0243598 78.8 81.6
2021-06-24 06:25:00 70.5 70.6 60.5 70.5 70.5 7.6 9.9 7.7 193.0 203.4 0.00 0.0305285 78.7 81.5
2021-06-24 06:30:00 70.9 69.6 60.5 70.9 70.9 5.8 9.0 7.0 207.3 201.2 0.00 0.0360184 78.7 81.4
2021-06-24 06:35:00 71.5 67.5 60.1 71.5 71.5 5.5 9.0 6.3 220.4 206.8 0.00 0.0397860 78.7 81.4
2021-06-24 06:40:00 72.4 64.9 60.0 72.4 72.4 5.3 7.1 5.9 229.1 226.8 0.00 0.0453305 78.7 81.4
2021-06-24 06:45:00 73.2 63.6 60.1 73.2 73.2 6.2 7.2 6.1 265.8 247.1 0.00 0.0508627 78.7 81.3
2021-06-24 06:50:00 73.8 62.4 60.2 73.8 73.8 5.3 7.2 6.1 232.9 251.8 0.00 0.0559622 78.8 81.2
2021-06-24 06:55:00 74.5 61.5 60.4 74.5 74.5 6.7 8.3 6.6 209.5 236.1 0.00 0.0596686 78.9 81.2
2021-06-24 07:00:00 74.8 61.9 60.8 74.8 74.8 7.4 9.4 7.9 231.4 216.5 0.00 0.0637828 78.9 81.2
2021-06-24 07:05:00 75.1 61.5 61.0 75.1 75.1 6.9 11.2 8.9 214.9 209.3 0.00 0.0680004 79.1 81.2
2021-06-24 07:10:00 76.1 57.7 60.1 76.1 76.1 11.3 13.1 8.3 212.5 221.5 0.00 0.0712289 79.2 81.1
2021-06-24 07:15:00 75.9 58.1 60.1 75.9 75.9 11.7 14.2 12.0 214.7 207.5 0.00 0.0737313 79.3 81.1
2021-06-24 07:20:00 76.2 58.3 60.5 76.2 76.2 11.5 15.5 11.8 197.9 213.7 0.00 0.0760927 79.4 81.1
2021-06-24 07:25:00 76.1 58.5 60.5 76.1 76.1 14.2 15.8 12.7 213.3 212.1 0.00 0.0836287 79.5 81.2
2021-06-24 07:30:00 76.2 58.2 60.5 76.2 76.2 11.0 14.7 11.7 196.5 211.0 0.00 0.0923267 79.6 81.2
2021-06-24 07:35:00 76.5 57.8 60.5 76.5 76.5 11.3 17.2 13.2 201.3 212.0 0.00 0.0994809 79.8 81.2
2021-06-24 07:40:00 77.2 56.5 60.6 77.2 77.2 11.2 13.9 11.2 212.1 218.3 0.00 0.1050933 80.0 81.2
2021-06-24 07:45:00 76.8 56.7 60.3 76.8 76.8 13.5 15.3 11.5 219.5 214.7 0.00 0.0664196 80.2 81.2
2021-06-24 07:50:00 76.9 57.0 60.5 76.9 76.9 9.0 13.3 11.1 216.3 214.7 0.00 0.0911109 80.4 81.3
2021-06-24 07:55:00 77.8 56.4 61.1 77.8 77.8 10.3 12.8 10.3 197.2 207.1 0.00 0.1380575 80.6 81.3
2021-06-24 08:00:00 77.6 55.0 60.2 77.6 77.6 13.1 13.1 10.6 216.0 210.9 0.00 0.0791156 80.8 81.4
2021-06-24 08:05:00 77.3 55.3 60.0 77.3 77.3 10.5 13.7 10.5 219.0 210.7 0.00 0.0680348 81.0 81.4
2021-06-24 08:10:00 77.3 55.2 60.0 77.3 77.3 11.3 12.4 10.3 220.2 207.0 0.00 0.0693099 81.2 81.5
2021-06-24 08:15:00 77.5 55.1 60.1 77.5 77.5 9.4 12.8 10.0 201.9 214.0 0.00 0.0608400 81.4 81.5
2021-06-24 08:20:00 77.3 55.4 60.1 77.3 77.3 13.0 14.2 11.6 216.1 206.0 0.00 0.0623094 81.6 81.6
2021-06-24 08:25:00 77.4 55.3 60.1 77.4 77.4 8.5 13.0 10.3 200.6 206.4 0.00 0.0631031 81.7 81.7
2021-06-24 08:30:00 77.5 55.6 60.3 77.5 77.5 7.1 11.7 8.7 204.3 208.9 0.00 0.0714983 81.9 81.7
2021-06-24 08:35:00 77.3 56.4 60.6 77.3 77.3 8.5 11.3 9.4 221.4 207.5 0.00 0.0730118 82.0 81.8
2021-06-24 08:40:00 77.5 55.7 60.4 77.5 77.5 9.4 9.7 7.8 218.2 208.6 0.00 0.0751263 82.1 81.8
2021-06-24 08:45:00 77.6 55.1 60.2 77.6 77.6 8.8 9.4 7.1 221.7 219.6 0.00 0.1000652 82.2 81.9
2021-06-24 08:50:00 78.5 52.5 59.6 78.5 78.5 8.0 10.6 8.0 221.3 218.0 0.00 0.1643641 82.4 82.0
2021-06-24 08:55:00 78.9 51.9 59.7 78.9 78.9 5.3 7.6 5.7 238.2 222.0 0.00 0.1570066 82.5 82.0
2021-06-24 09:00:00 78.5 52.8 59.9 78.5 78.5 6.2 9.2 6.2 177.0 196.9 0.00 0.0948356 82.8 82.1
2021-06-24 09:05:00 79.3 50.8 59.5 79.3 79.3 4.9 10.1 7.3 208.7 224.9 0.00 0.0873738 83.1 82.1
2021-06-24 09:10:00 78.8 52.0 59.7 78.8 78.8 5.8 9.4 6.5 184.4 207.2 0.00 0.0614923 83.4 82.2
2021-06-24 09:15:00 78.7 50.9 59.0 78.7 78.7 5.8 9.7 7.8 223.3 211.8 0.00 0.0518175 83.7 82.3
2021-06-24 09:20:00 79.3 48.2 58.0 79.3 79.3 4.9 5.8 4.1 216.7 220.6 0.00 0.0565684 83.9 82.4
2021-06-24 09:25:00 79.7 48.2 58.4 79.7 79.7 6.9 6.9 4.7 206.9 213.2 0.00 0.0623858 84.0 82.5
2021-06-24 09:30:00 79.5 50.0 59.2 79.5 79.5 7.4 8.5 7.0 235.2 206.1 0.00 0.0825267 84.1 82.6
2021-06-24 09:35:00 80.2 47.0 58.1 80.2 80.7 3.5 8.3 5.4 237.0 217.5 0.00 0.1011221 84.2 82.7
2021-06-24 09:40:00 80.3 47.8 58.7 80.3 80.8 5.3 6.0 4.3 201.4 200.4 0.00 0.1143643 84.3 82.7
2021-06-24 09:45:00 80.6 46.2 58.0 80.6 80.9 4.9 7.4 5.9 207.7 207.9 0.00 0.1273059 84.4 82.8
2021-06-24 09:50:00 81.2 44.3 57.4 81.2 81.3 4.4 6.7 4.9 216.2 230.5 0.00 0.1162319 84.6 82.9
2021-06-24 09:55:00 81.7 44.2 57.7 81.7 81.7 7.8 8.8 6.3 231.7 245.3 0.00 0.1155471 84.8 83.0
2021-06-24 10:00:00 82.2 43.3 57.7 82.2 82.0 5.3 9.4 7.4 235.9 227.3 0.00 0.1001478 85.0 83.0
2021-06-24 10:05:00 82.1 40.6 55.8 82.1 81.6 6.0 7.2 5.5 213.4 231.4 0.00 0.0877707 85.2 83.1
2021-06-24 10:10:00 82.3 41.1 56.4 82.3 81.9 7.6 8.5 6.0 264.4 253.5 0.00 0.0835576 85.5 83.2
2021-06-24 10:15:00 81.9 43.3 57.4 81.9 81.7 5.8 7.6 6.6 226.2 229.1 0.00 0.0750650 85.7 83.3
2021-06-24 10:20:00 81.9 43.0 57.2 81.9 81.7 5.8 8.3 6.4 236.0 226.4 0.00 0.0749464 85.8 83.4
2021-06-24 10:25:00 82.2 42.1 56.8 82.2 81.8 10.6 12.8 8.2 224.1 235.5 0.00 0.0822665 86.0 83.5
2021-06-24 10:30:00 81.9 41.9 56.5 81.9 81.6 5.1 12.2 9.1 213.3 224.4 0.00 0.0604523 86.1 83.6
2021-06-24 10:35:00 81.9 43.7 57.7 81.9 81.8 1.9 5.8 2.9 203.7 211.5 0.00 0.0489897 86.2 83.7
2021-06-24 10:40:00 81.7 44.8 58.1 81.7 81.7 7.2 8.3 4.3 188.9 181.8 0.00 0.0521686 86.2 83.8
2021-06-24 10:45:00 81.2 44.4 57.5 81.2 81.3 8.3 11.7 8.8 201.4 196.4 0.00 0.0592480 86.3 83.9
2021-06-24 10:50:00 81.2 43.2 56.8 81.2 81.2 9.0 11.0 8.7 199.3 205.0 0.00 0.0677199 86.3 83.9
2021-06-24 10:55:00 81.7 44.0 57.7 81.7 81.7 5.8 9.2 6.5 175.0 191.7 0.00 0.0819389 86.3 84.0
2021-06-24 11:00:00 81.9 46.4 59.3 81.9 82.1 4.6 6.7 4.9 182.7 206.6 0.00 0.0921394 86.3 84.1
2021-06-24 11:05:00 82.5 42.9 57.7 82.5 82.2 8.8 8.8 7.4 235.6 206.0 0.00 0.1292728 86.3 84.1
2021-06-24 11:10:00 83.6 42.1 58.2 83.6 83.2 12.2 12.4 10.3 231.5 233.1 0.00 0.2309984 86.4 84.2
2021-06-24 11:15:00 84.4 39.8 57.3 84.4 84.4 7.4 14.9 8.6 218.0 208.0 0.00 0.3119054 86.5 84.2
2021-06-24 11:20:00 84.9 38.9 57.1 84.9 84.9 8.3 8.7 6.4 235.6 203.9 0.00 0.3125257 86.6 84.3
2021-06-24 11:25:00 84.7 39.0 57.0 84.7 84.7 7.4 10.3 6.5 171.3 199.6 0.00 0.1678599 86.8 84.3
2021-06-24 11:30:00 85.9 37.6 57.1 85.9 85.9 8.1 9.2 6.5 207.0 193.7 0.00 0.3555053 87.0 84.4
2021-06-24 11:35:00 86.1 36.7 56.6 86.1 86.1 5.6 10.5 7.3 206.7 183.6 0.00 0.3135722 87.2 84.5
2021-06-24 11:40:00 86.1 35.4 55.6 86.1 86.1 7.6 9.2 5.9 117.3 212.6 0.00 0.3072134 87.5 84.7
2021-06-24 11:45:00 87.4 31.3 53.4 87.4 87.4 4.4 9.0 6.9 138.8 144.1 0.00 0.3094651 87.7 84.8
2021-06-24 11:50:00 88.9 31.5 54.8 88.9 88.9 2.8 6.9 4.0 227.8 148.1 0.00 0.3256443 87.9 85.1
2021-06-24 11:55:00 88.0 31.0 53.6 88.0 88.0 4.2 8.1 5.2 115.6 151.3 0.00 0.1961926 88.1 85.3
2021-06-24 12:00:00 89.2 32.0 55.5 89.2 89.2 7.1 8.8 5.4 213.8 180.7 0.00 0.3322259 88.3 85.6
2021-06-24 12:05:00 89.2 30.8 54.5 89.2 89.2 9.0 9.6 6.3 142.1 190.7 0.00 0.2808893 88.4 85.9
2021-06-24 12:10:00 90.1 28.5 53.0 90.1 90.1 6.2 8.8 5.8 137.8 163.1 0.00 0.3244190 88.6 86.2
2021-06-24 12:15:00 89.9 29.1 53.5 89.9 89.9 4.7 7.8 5.5 192.9 168.8 0.00 0.2747203 88.9 86.4
2021-06-24 12:20:00 89.3 28.9 52.8 89.3 89.3 6.2 9.9 7.4 147.9 169.2 0.00 0.2076641 89.3 86.7
2021-06-24 12:25:00 90.2 27.3 52.0 90.2 90.2 8.8 9.2 5.4 138.1 154.3 0.00 0.2813114 89.7 87.0
2021-06-24 12:30:00 91.0 26.0 51.4 91.0 91.0 7.4 9.9 7.4 165.6 146.4 0.00 0.3118840 90.3 87.3
2021-06-24 12:35:00 91.1 25.6 51.1 91.1 91.1 4.7 7.2 5.0 26.6 107.0 0.00 0.3105375 90.8 87.6
2021-06-24 12:40:00 92.0 24.2 50.3 92.0 92.0 4.7 5.3 3.4 151.0 49.8 0.00 0.3088630 91.5 87.9
2021-06-24 12:45:00 92.7 23.4 49.9 92.7 92.7 9.2 9.2 5.3 137.8 133.5 0.00 0.3045490 92.2 88.1
2021-06-24 12:50:00 92.2 23.5 49.7 92.2 92.2 3.0 9.6 6.4 199.6 106.4 0.00 0.3097892 92.9 88.4
2021-06-24 12:55:00 92.0 22.3 48.1 92.0 92.0 4.9 7.1 4.7 129.4 146.0 0.00 0.3072674 93.7 88.6
2021-06-24 13:00:00 93.7 21.0 47.8 93.7 93.7 7.2 9.7 4.8 154.8 121.5 0.00 0.3107961 94.5 88.9
2021-06-24 13:05:00 92.9 20.5 46.7 92.9 92.9 3.7 9.7 4.5 64.2 135.0 0.00 0.3065572 95.2 89.1
2021-06-24 13:10:00 93.7 19.1 45.3 93.7 93.7 5.1 8.7 4.7 137.0 95.9 0.00 0.3061643 95.9 89.3
2021-06-24 13:15:00 93.0 20.5 46.8 93.0 93.0 6.9 11.5 7.1 111.1 144.7 0.00 0.3068824 96.6 89.6
2021-06-24 13:20:00 93.3 19.9 46.2 93.3 93.3 3.1 9.2 5.2 0.8 84.1 0.00 0.3104233 97.3 89.8
2021-06-24 13:25:00 93.6 19.5 45.9 93.6 93.6 2.4 9.2 4.0 69.5 349.3 0.00 0.3177866 97.9 90.1
2021-06-24 13:30:00 94.7 17.9 44.5 94.7 94.7 3.0 4.0 2.1 340.9 49.2 0.00 0.3295675 98.5 90.3
2021-06-24 13:35:00 94.9 19.9 47.5 94.9 94.9 6.5 10.8 5.2 57.0 102.4 0.00 0.3326999 99.1 90.6
2021-06-24 13:40:00 95.2 18.0 45.1 95.2 95.2 10.3 17.4 6.8 149.1 90.8 0.00 0.2965991 99.8 90.9
2021-06-24 13:45:00 94.3 18.7 45.3 94.3 94.3 11.3 12.6 9.5 166.3 167.9 0.00 0.2782245 100.4 91.1
2021-06-24 13:50:00 94.4 19.3 46.2 94.4 94.4 7.8 11.2 6.4 200.2 168.2 0.00 0.2803625 100.9 91.4
2021-06-24 13:55:00 94.3 20.1 47.2 94.3 94.3 12.8 12.8 6.2 153.2 200.6 0.00 0.2673237 101.4 91.7
2021-06-24 14:00:00 94.1 20.3 47.4 94.1 94.1 6.0 14.7 7.9 141.7 159.8 0.00 0.3072007 101.8 92.0
2021-06-24 14:05:00 94.8 19.1 46.3 94.8 94.8 17.8 17.8 10.4 138.9 153.8 0.00 0.2997732 102.2 92.3
2021-06-24 14:10:00 94.9 18.6 45.6 94.9 94.9 9.6 16.2 13.6 149.5 142.9 0.00 0.2992712 102.5 92.5
2021-06-24 14:15:00 94.6 19.5 46.7 94.6 94.6 8.0 16.0 10.7 165.0 138.0 0.00 0.2700934 102.9 92.8
2021-06-24 14:20:00 95.2 18.4 45.6 95.2 95.2 10.8 17.2 11.3 127.1 140.2 0.00 0.3032274 103.2 93.0
2021-06-24 14:25:00 95.2 21.8 50.1 95.2 95.2 16.7 17.8 12.1 132.7 146.7 0.00 0.2941166 103.4 93.3
2021-06-24 14:30:00 93.0 23.6 50.5 93.0 93.0 12.2 19.9 13.3 113.1 130.6 0.00 0.0810403 103.7 93.4
2021-06-24 14:35:00 94.8 22.3 50.4 94.8 94.8 16.5 21.7 15.6 164.6 139.6 0.00 0.2572770 103.9 93.7
2021-06-24 14:40:00 95.5 21.1 49.5 95.5 95.5 13.5 18.9 14.6 155.1 144.0 0.00 0.2635403 103.9 93.8
2021-06-24 14:45:00 93.5 22.2 49.2 93.5 93.5 15.3 22.3 17.3 143.2 138.7 0.00 0.1942910 103.9 94.0
2021-06-24 14:50:00 94.5 21.2 48.8 94.5 94.5 15.6 18.1 15.0 168.5 146.9 0.00 0.2118903 103.9 94.2
2021-06-24 14:55:00 94.7 21.5 49.3 94.7 94.7 14.6 18.0 14.5 131.1 151.6 0.00 0.2481687 103.8 94.3
2021-06-24 15:00:00 94.3 21.7 49.2 94.3 94.3 13.0 18.1 15.3 143.1 140.1 0.00 0.2305973 103.7 94.4
2021-06-24 15:05:00 95.2 21.8 50.2 95.2 95.2 9.7 15.6 12.2 166.9 155.3 0.00 0.2485721 103.7 94.5
2021-06-24 15:10:00 93.9 21.6 48.8 93.9 93.9 12.1 17.1 13.5 154.5 163.3 0.00 0.1137001 103.6 94.6
2021-06-24 15:15:00 93.3 21.7 48.4 93.3 93.3 12.2 13.3 11.0 129.9 154.2 0.00 0.0674218 103.6 94.7
2021-06-24 15:20:00 94.3 22.2 49.9 94.3 94.3 9.9 16.7 12.7 161.0 168.6 0.00 0.1978388 103.6 94.8
2021-06-24 15:25:00 94.1 20.9 48.1 94.1 94.1 13.0 17.1 13.6 155.2 168.2 0.00 0.1764361 103.3 94.8
2021-06-24 15:30:00 94.6 20.5 48.0 94.6 94.6 19.6 23.7 16.9 152.9 159.1 0.00 0.2527055 103.1 94.8
2021-06-24 15:35:00 95.6 19.8 47.8 95.6 95.6 16.2 20.6 15.7 140.2 154.1 0.00 0.2500642 103.0 94.9
2021-06-24 15:40:00 96.8 19.9 49.0 96.8 96.8 17.1 19.0 15.4 165.9 151.1 0.00 0.2358076 102.9 94.9
2021-06-24 15:45:00 95.1 20.8 48.7 95.1 95.1 14.7 21.2 16.0 163.8 167.5 0.00 0.2403886 102.9 94.9
2021-06-24 15:50:00 95.4 20.4 48.5 95.4 95.4 19.6 21.2 15.5 147.8 156.7 0.00 0.2366447 103.0 95.0
2021-06-24 15:55:00 94.7 22.6 50.7 94.7 94.7 14.9 21.7 17.4 192.7 166.2 0.00 0.2361440 103.0 95.0
2021-06-24 16:00:00 95.5 21.1 49.5 95.5 95.5 11.5 20.6 14.7 172.3 163.7 0.00 0.2307779 103.1 95.0
2021-06-24 16:05:00 95.5 20.6 48.8 95.5 95.5 16.7 23.5 18.0 163.5 166.2 0.00 0.2240481 103.2 95.0
2021-06-24 16:10:00 95.2 17.9 44.9 95.2 95.2 14.9 25.5 18.4 176.8 156.7 0.00 0.2161418 103.2 95.1
2021-06-24 16:15:00 95.2 17.9 44.9 95.2 95.2 16.9 24.0 19.1 176.1 158.6 0.00 0.2116182 103.3 95.1
2021-06-24 16:20:00 94.8 18.5 45.4 94.8 94.8 14.7 22.8 18.2 163.1 173.1 0.00 0.2090431 103.3 95.1
2021-06-24 16:25:00 94.9 19.3 46.6 94.9 94.9 16.5 24.8 18.0 172.9 163.9 0.00 0.2037989 103.3 95.2
2021-06-24 16:30:00 94.9 18.4 45.3 94.9 94.9 18.5 23.7 18.8 169.4 163.8 0.00 0.1981156 103.2 95.3
2021-06-24 16:35:00 94.6 18.6 45.4 94.6 94.6 16.0 24.4 19.6 186.2 165.5 0.00 0.1930726 103.2 95.3
2021-06-24 16:40:00 95.1 18.3 45.3 95.1 95.1 17.1 21.4 17.1 177.9 163.8 0.00 0.1881106 103.2 95.3
2021-06-24 16:45:00 94.9 19.3 46.6 94.9 94.9 16.5 21.4 17.1 183.9 170.6 0.00 0.1852371 103.0 95.4
2021-06-24 16:50:00 94.1 19.8 46.6 94.1 94.1 18.7 24.0 19.1 167.6 170.7 0.00 0.1819292 103.0 95.4
2021-06-24 16:55:00 94.7 19.3 46.4 94.7 94.7 17.1 22.6 17.6 139.0 162.9 0.00 0.1778981 102.9 95.4
2021-06-24 17:00:00 93.6 18.8 44.9 93.6 93.6 23.3 23.3 18.1 180.9 176.4 0.00 0.0891512 102.8 95.4
2021-06-24 17:05:00 93.6 19.8 46.2 93.6 93.6 13.5 22.1 17.0 180.7 180.2 0.00 0.1274467 102.7 95.5
2021-06-24 17:10:00 93.1 20.1 46.3 93.1 93.1 17.8 21.9 17.5 173.5 187.3 0.00 0.0992401 102.5 95.4
2021-06-24 17:15:00 92.2 20.5 46.1 92.2 92.2 18.3 20.6 18.0 181.7 184.8 0.00 0.0597043 102.3 95.4
2021-06-24 17:20:00 92.1 20.5 45.9 92.1 92.1 14.4 20.1 16.8 192.7 184.3 0.00 0.0407429 102.0 95.4
2021-06-24 17:25:00 91.5 22.0 47.3 91.5 91.5 18.7 24.2 18.9 195.8 192.5 0.00 0.0359661 101.8 95.4
2021-06-24 17:30:00 91.1 21.6 46.6 91.1 91.1 21.5 22.4 18.8 195.8 198.4 0.00 0.0311509 101.4 95.4
2021-06-24 17:35:00 86.2 31.2 52.2 86.2 86.2 28.1 34.2 24.3 233.1 221.3 0.00 0.0287573 101.0 95.3
2021-06-24 17:40:00 83.6 33.8 52.1 83.6 83.6 29.6 41.4 29.2 231.1 238.7 0.00 0.0296452 100.5 95.2
2021-06-24 17:45:00 82.9 34.6 52.1 82.9 82.9 25.3 32.4 25.2 227.0 233.9 0.00 0.0276980 100.1 95.2
2021-06-24 17:50:00 83.0 32.8 50.8 83.0 83.0 23.7 30.8 24.9 238.9 233.9 0.00 0.0226107 99.6 95.0
2021-06-24 17:55:00 83.4 32.4 50.8 83.4 83.4 23.2 30.8 26.9 239.2 233.4 0.00 0.0196134 99.1 94.9
2021-06-24 18:00:00 84.4 29.7 49.4 84.4 84.4 34.6 34.6 28.1 255.3 231.4 0.00 0.0180469 98.6 94.8
2021-06-24 18:05:00 85.7 27.7 48.6 85.7 85.7 18.7 33.7 25.8 238.1 237.2 0.00 0.0180274 98.1 94.6
2021-06-24 18:10:00 86.0 27.4 48.5 86.0 86.0 24.0 29.4 24.1 247.1 239.3 0.00 0.0190109 97.6 94.5
2021-06-24 18:15:00 86.4 24.7 46.1 86.4 86.4 25.3 30.3 23.8 234.2 244.1 0.00 0.0210563 97.2 94.3
2021-06-24 18:20:00 86.5 24.0 45.4 86.5 86.5 20.3 25.5 22.0 233.8 240.2 0.00 0.0230975 96.7 94.2
2021-06-24 18:25:00 86.8 24.2 45.9 86.8 86.8 22.4 27.4 20.5 251.7 239.0 0.00 0.0209898 96.3 94.0
2021-06-24 18:30:00 87.0 24.5 46.5 87.0 87.0 16.2 23.2 17.3 240.0 238.8 0.00 0.0196998 95.9 93.8
2021-06-24 18:35:00 87.3 24.1 46.2 87.3 87.3 14.2 15.8 13.8 236.3 249.7 0.00 0.0220885 95.5 93.6
2021-06-24 18:40:00 87.3 23.7 45.8 87.3 87.3 13.9 16.9 13.3 246.5 248.2 0.00 0.0233975 95.2 93.5
2021-06-24 18:45:00 87.2 23.7 45.8 87.2 87.2 13.1 14.6 11.8 253.8 247.0 0.00 0.0240209 94.9 93.3
2021-06-24 18:50:00 87.4 23.4 45.4 87.4 87.4 9.2 13.0 10.3 254.2 244.8 0.00 0.0233892 94.6 93.1
2021-06-24 18:55:00 87.6 22.9 45.1 87.6 87.6 11.9 13.9 10.4 268.0 239.4 0.00 0.0199817 94.4 93.0
2021-06-24 19:00:00 88.0 22.2 44.7 88.0 88.0 14.2 18.9 14.1 252.8 253.1 0.00 0.0186080 94.1 92.8
2021-06-24 19:05:00 88.2 22.2 44.9 88.2 88.2 13.7 16.2 13.1 261.2 245.6 0.00 0.0163071 93.9 92.7
2021-06-24 19:10:00 88.1 22.4 45.1 88.1 88.1 11.5 14.4 12.0 252.4 243.1 0.00 0.0109561 93.7 92.5
2021-06-24 19:15:00 87.4 23.8 46.0 87.4 87.4 9.6 13.5 10.2 260.2 257.9 0.00 0.0067676 93.5 92.4
2021-06-24 19:20:00 86.9 24.2 46.0 86.9 86.9 8.1 9.9 8.0 258.6 256.4 0.00 0.0058589 93.3 92.2
2021-06-24 19:25:00 86.7 24.6 46.2 86.7 86.7 9.2 10.6 8.7 271.9 265.5 0.00 0.0046430 93.0 92.1
2021-06-24 19:30:00 86.3 23.7 44.9 86.3 86.3 14.2 14.2 11.4 285.4 285.3 0.00 0.0022254 92.8 92.0

Data is courtesy of the NM Climate Center. DO NOT USE IN LEGAL PROCEEDINGS.